Time;durP1;ratioP1;P1;durP2;ratioP2;P2;SDS_P1;SDS_P2;PMS_P1;PMS_P2;Temp;Humidity;BMP_temperature;BMP_pressure;BME280_temperature;BME280_humidity;BME280_pressure;Samples;Min_cycle;Max_cycle;Signal;HPM_P1;HPM_P2
2022/08/08 00:04:55;;;;;;;;;;;;;;;23.55;52.78;96083.31;10247062;28;1881;-70
2022/08/08 00:10:02;;;;;;;;;;;;;;;23.55;52.94;96080.66;10261675;28;2101;-69
2022/08/08 00:15:13;;;;;;;;;;;;;;;23.54;52.88;96076.41;10266267;28;2257;-70
2022/08/08 00:20:14;;;;;;;;;;;;;;;23.54;52.93;96071.94;10242329;28;1985;-69
2022/08/08 00:25:34;;;;;;;;;;;;;;;23.56;52.93;96074.28;10267098;28;1893;-70
2022/08/08 00:30:36;;;;;;;;;;;;;;;23.54;52.59;96071.94;10266611;28;2064;-70
2022/08/08 00:35:48;;;;;;;;;;;;;;;23.55;52.43;96068.22;10266575;28;2144;-70
2022/08/08 00:41:07;;;;;;;;;;;;;;;23.56;52.44;96072.44;10267593;28;2008;-70
2022/08/08 00:46:23;;;;;;;;;;;;;;;23.57;52.30;96074.03;10264468;28;2258;-70
2022/08/08 00:51:23;;;;;;;;;;;;;;;23.56;52.42;96069.78;10268569;28;1922;-70
2022/08/08 00:56:43;;;;;;;;;;;;;;;23.56;52.49;96069.00;10269204;28;1915;-69
2022/08/08 01:01:54;;;;;;;;;;;;;;;23.55;52.42;96067.44;10259030;28;1925;-70
2022/08/08 01:07:24;;;;;;;;;;;;;;;23.55;52.30;96076.16;10269075;28;1916;-70
2022/08/08 01:12:32;;;;;;;;;;;;;;;23.58;51.84;96075.56;10214812;28;1982;-70
2022/08/08 01:17:42;;;;;;;;;;;;;;;23.58;51.98;96078.22;10259963;28;1961;-70
2022/08/08 01:22:48;;;;;;;;;;;;;;;23.59;52.01;96074.53;10270695;28;1990;-71
2022/08/08 01:28:20;;;;;;;;;;;;;;;23.58;52.13;96069.50;10265647;28;2000;-71
2022/08/08 01:33:38;;;;;;;;;;;;;;;23.59;51.85;96079.03;10269893;28;1986;-71
2022/08/08 01:39:08;;;;;;;;;;;;;;;23.58;51.76;96070.28;10265834;28;1978;-70
2022/08/08 01:44:17;;;;;;;;;;;;;;;23.59;51.83;96066.59;10269624;28;2040;-69
2022/08/08 01:49:25;;;;;;;;;;;;;;;23.59;51.86;96082.47;10263791;28;1968;-70
2022/08/08 01:54:45;;;;;;;;;;;;;;;23.58;51.87;96083.50;10272461;28;2017;-71
2022/08/08 02:00:00;;;;;;;;;;;;;;;23.59;51.63;96085.09;10269109;28;1958;-71
2022/08/08 02:05:04;;;;;;;;;;;;;;;23.61;51.63;96082.97;10273726;28;2123;-70
2022/08/08 02:10:13;;;;;;;;;;;;;;;23.61;51.41;96084.81;10270822;28;1993;-70
2022/08/08 02:15:32;;;;;;;;;;;;;;;23.62;51.49;96087.16;10268880;28;1980;-70
2022/08/08 02:26:15;;;;;;;;;;;;;;;23.62;51.17;96094.34;10263821;28;1972;-71
2022/08/08 02:31:19;;;;;;;;;;;;;;;23.63;51.12;96090.59;10278901;28;1899;-71
2022/08/08 02:36:22;;;;;;;;;;;;;;;23.65;51.16;96088.47;10277133;28;2266;-71
2022/08/08 02:41:41;;;;;;;;;;;;;;;23.64;51.12;96098.25;10275034;28;1983;-70
2022/08/08 02:46:50;;;;;;;;;;;;;;;23.63;51.14;96098.56;10278871;28;2067;-69
2022/08/08 02:51:55;;;;;;;;;;;;;;;23.65;50.78;96107.00;10271950;28;1948;-70
2022/08/08 02:57:11;;;;;;;;;;;;;;;23.64;50.68;96098.25;10272155;28;1962;-70
2022/08/08 03:02:14;;;;;;;;;;;;;;;23.64;50.71;96100.91;10275724;28;1938;-71
2022/08/08 03:07:15;;;;;;;;;;;;;;;23.64;50.70;96102.78;10274649;28;2006;-70
2022/08/08 03:12:34;;;;;;;;;;;;;;;23.65;50.63;96099.84;10271788;28;1946;-71
2022/08/08 03:17:36;;;;;;;;;;;;;;;23.65;50.69;96102.50;10276888;28;1963;-71
2022/08/08 03:22:43;;;;;;;;;;;;;;;23.65;50.38;96105.13;10275934;28;2015;-71
2022/08/08 03:27:51;;;;;;;;;;;;;;;23.66;50.22;96101.41;10278016;28;1948;-70
2022/08/08 03:38:11;;;;;;;;;;;;;;;23.66;49.74;96104.06;10279398;28;2020;-70
2022/08/08 03:43:12;;;;;;;;;;;;;;;23.67;49.89;96102.19;10272435;28;2001;-71
2022/08/08 03:48:12;;;;;;;;;;;;;;;23.65;49.62;96104.34;10267146;28;1971;-71
2022/08/08 03:53:13;;;;;;;;;;;;;;;23.64;49.62;96111.50;10268369;28;1978;-71
2022/08/08 03:58:18;;;;;;;;;;;;;;;23.65;49.56;96104.34;10266195;28;1988;-70
2022/08/08 04:03:18;;;;;;;;;;;;;;;23.68;49.47;96104.56;10263181;28;2089;-70
2022/08/08 04:08:19;;;;;;;;;;;;;;;23.67;49.48;96108.28;10274210;28;1926;-70
2022/08/08 04:13:20;;;;;;;;;;;;;;;23.67;49.41;96108.28;10273119;28;1960;-70
2022/08/08 04:18:40;;;;;;;;;;;;;;;23.69;49.46;96115.94;10281436;28;1932;-70
2022/08/08 04:24:00;;;;;;;;;;;;;;;23.69;49.26;96127.31;10273274;28;1832;-71
2022/08/08 04:29:20;;;;;;;;;;;;;;;23.68;49.24;96125.72;10272773;28;1841;-69
2022/08/08 04:34:41;;;;;;;;;;;;;;;23.70;49.10;96134.16;10268722;28;1821;-70
2022/08/08 04:40:02;;;;;;;;;;;;;;;23.71;48.95;96140.25;10267390;28;2033;-70
2022/08/08 04:45:23;;;;;;;;;;;;;;;23.71;48.77;96138.41;10277022;28;1886;-70
2022/08/08 04:50:43;;;;;;;;;;;;;;;23.71;48.67;96146.34;10269042;28;1869;-70
2022/08/08 04:56:03;;;;;;;;;;;;;;;23.73;48.54;96156.66;10259662;28;1997;-68
2022/08/08 05:01:23;;;;;;;;;;;;;;;23.75;48.48;96159.78;10265113;28;1950;-69
2022/08/08 05:06:41;;;;;;;;;;;;;;;23.77;48.58;96166.38;10277284;28;1932;-70
2022/08/08 05:11:42;;;;;;;;;;;;;;;23.79;48.66;96166.09;10276550;28;2212;-68
2022/08/08 05:16:42;;;;;;;;;;;;;;;23.80;48.41;96170.34;10273656;28;2076;-71
2022/08/08 05:21:43;;;;;;;;;;;;;;;23.77;47.99;96176.97;10276113;28;1932;-72
2022/08/08 05:26:46;;;;;;;;;;;;;;;23.76;47.98;96170.09;10281331;28;1932;-72
2022/08/08 05:31:47;;;;;;;;;;;;;;;23.76;47.87;96172.75;10276614;28;2128;-71
2022/08/08 05:36:48;;;;;;;;;;;;;;;23.76;47.88;96172.75;10267832;28;2044;-72
2022/08/08 05:41:48;;;;;;;;;;;;;;;23.75;47.53;96176.47;10293122;28;1812;-71
2022/08/08 05:46:51;;;;;;;;;;;;;;;23.72;47.54;96178.91;10280868;28;1891;-72
2022/08/08 05:51:52;;;;;;;;;;;;;;;23.73;47.39;96175.19;10280739;28;2001;-72
2022/08/08 05:56:54;;;;;;;;;;;;;;;23.72;47.47;96182.31;10278521;28;1911;-71
2022/08/08 06:01:55;;;;;;;;;;;;;;;23.72;47.19;96181.56;10277705;28;1837;-71
2022/08/08 06:06:56;;;;;;;;;;;;;;;23.71;47.04;96187.91;10280182;28;2013;-72
2022/08/08 06:11:59;;;;;;;;;;;;;;;23.71;46.90;96187.91;10267609;28;1817;-73
2022/08/08 06:17:00;;;;;;;;;;;;;;;23.71;46.90;96187.91;10275846;28;1949;-71
2022/08/08 06:22:01;;;;;;;;;;;;;;;23.71;46.84;96187.91;10272318;28;1797;-71
2022/08/08 06:27:04;;;;;;;;;;;;;;;23.70;46.73;96197.69;10279601;28;2006;-71
2022/08/08 06:32:04;;;;;;;;;;;;;;;23.70;46.59;96203.00;10275251;28;1913;-70
2022/08/08 06:37:06;;;;;;;;;;;;;;;23.66;46.21;96201.22;10281867;28;1899;-71
2022/08/08 06:42:08;;;;;;;;;;;;;;;23.68;46.52;96212.31;10278662;28;2052;-72
2022/08/08 06:47:08;;;;;;;;;;;;;;;23.68;46.15;96210.44;10267169;28;1902;-71
2022/08/08 06:52:09;;;;;;;;;;;;;;;23.69;46.49;96211.22;10276636;28;1930;-71
2022/08/08 06:57:10;;;;;;;;;;;;;;;23.70;46.06;96213.56;10265461;28;1927;-71
2022/08/08 07:02:13;;;;;;;;;;;;;;;23.66;45.74;96220.50;10269949;28;1908;-71
2022/08/08 07:07:15;;;;;;;;;;;;;;;23.68;46.00;96222.91;10285974;28;2013;-71
2022/08/08 07:12:16;;;;;;;;;;;;;;;23.70;46.01;96228.69;10269287;28;1817;-72
2022/08/08 07:17:17;;;;;;;;;;;;;;;23.65;45.86;96220.78;10258514;28;1898;-72
2022/08/08 07:22:21;;;;;;;;;;;;;;;23.66;45.77;96233.75;10272609;28;1865;-72
2022/08/08 07:27:22;;;;;;;;;;;;;;;23.64;45.51;96222.66;10280844;28;1886;-71
2022/08/08 07:32:22;;;;;;;;;;;;;;;23.65;45.68;96240.13;10269696;28;1750;-72
2022/08/08 07:37:23;;;;;;;;;;;;;;;23.69;45.56;96243.78;10258602;28;1981;-71
2022/08/08 07:42:23;;;;;;;;;;;;;;;23.69;45.48;96246.44;10277347;28;1946;-71
2022/08/08 07:47:23;;;;;;;;;;;;;;;23.70;45.24;96241.94;10271359;28;2057;-71
2022/08/08 07:52:24;;;;;;;;;;;;;;;23.70;45.19;96237.41;10260048;28;1935;-71
2022/08/08 07:57:24;;;;;;;;;;;;;;;23.70;44.82;96244.56;10271961;28;1946;-72
2022/08/08 08:02:26;;;;;;;;;;;;;;;23.65;44.78;96248.06;10273166;28;1884;-72
2022/08/08 08:07:26;;;;;;;;;;;;;;;23.68;44.70;96249.38;10278395;28;2016;-72
2022/08/08 08:12:26;;;;;;;;;;;;;;;23.68;44.74;96249.38;10268111;28;1842;-72
2022/08/08 08:17:28;;;;;;;;;;;;;;;23.68;44.35;96257.31;10266511;28;2084;-71
2022/08/08 08:22:28;;;;;;;;;;;;;;;23.65;44.38;96252.56;10265377;28;2566;-72
2022/08/08 08:27:28;;;;;;;;;;;;;;;23.69;44.77;96249.06;10274243;28;1885;-72
2022/08/08 08:32:30;;;;;;;;;;;;;;;23.71;44.66;96246.13;10272469;28;1914;-71
2022/08/08 08:37:31;;;;;;;;;;;;;;;23.74;44.71;96250.88;10272839;28;2238;-71
2022/08/08 08:42:32;;;;;;;;;;;;;;;23.74;44.44;96256.94;10280055;28;1845;-72
2022/08/08 08:47:33;;;;;;;;;;;;;;;23.75;44.26;96250.59;10293957;28;1892;-71
2022/08/08 08:52:33;;;;;;;;;;;;;;;23.76;44.80;96252.16;10274578;28;1857;-71
2022/08/08 08:57:34;;;;;;;;;;;;;;;23.76;43.95;96260.09;10282978;28;2040;-71
2022/08/08 09:02:35;;;;;;;;;;;;;;;23.76;44.01;96254.81;10297485;28;1815;-72
2022/08/08 09:07:35;;;;;;;;;;;;;;;23.75;44.01;96263.81;10258926;28;1920;-72
2022/08/08 09:12:37;;;;;;;;;;;;;;;23.76;43.64;96259.34;10281407;28;1896;-72
2022/08/08 09:17:38;;;;;;;;;;;;;;;23.78;43.94;96257.94;10297197;28;1902;-71
2022/08/08 09:22:38;;;;;;;;;;;;;;;23.78;43.79;96257.19;10278726;28;1922;-71
2022/08/08 09:27:39;;;;;;;;;;;;;;;23.79;43.45;96256.91;10274940;28;1855;-72
2022/08/08 09:32:41;;;;;;;;;;;;;;;23.80;43.56;96255.06;10284288;28;1838;-71
2022/08/08 09:37:43;;;;;;;;;;;;;;;23.80;43.08;96266.41;10276936;28;1978;-72
2022/08/08 09:42:44;;;;;;;;;;;;;;;23.75;42.64;96268.31;10274442;28;1883;-71
2022/08/08 09:47:45;;;;;;;;;;;;;;;23.73;42.53;96268.63;10281859;28;1828;-72
2022/08/08 09:52:49;;;;;;;;;;;;;;;23.76;42.66;96264.63;10276144;28;1869;-73
2022/08/08 09:57:50;;;;;;;;;;;;;;;23.78;42.89;96257.94;10289572;28;1899;-72
2022/08/08 10:02:51;;;;;;;;;;;;;;;23.80;42.74;96257.69;10276133;28;1946;-71
2022/08/08 10:07:51;;;;;;;;;;;;;;;23.81;42.55;96256.59;10295378;28;2200;-72
2022/08/08 10:12:51;;;;;;;;;;;;;;;23.81;42.66;96244.16;10277220;28;1866;-72
2022/08/08 10:17:53;;;;;;;;;;;;;;;23.85;42.49;96258.41;10274838;28;1964;-72
2022/08/08 10:22:58;;;;;;;;;;;;;;;23.87;42.52;96250.19;10274617;28;1881;-72
2022/08/08 10:27:58;;;;;;;;;;;;;;;23.89;42.68;96254.13;10276518;28;1810;-72
2022/08/08 10:32:58;;;;;;;;;;;;;;;23.92;42.57;96255.44;10285208;28;1992;-73
2022/08/08 10:38:00;;;;;;;;;;;;;;;23.93;42.28;96251.69;10276067;28;1906;-72
2022/08/08 10:43:01;;;;;;;;;;;;;;;23.93;42.56;96251.69;10272913;28;1822;-72
2022/08/08 10:48:02;;;;;;;;;;;;;;;23.93;42.38;96251.69;10270098;28;1873;-72
2022/08/08 10:53:06;;;;;;;;;;;;;;;23.92;42.48;96250.13;10291444;28;1964;-72
2022/08/08 10:58:08;;;;;;;;;;;;;;;23.94;42.46;96243.50;10276796;28;1906;-73
2022/08/08 11:03:09;;;;;;;;;;;;;;;23.98;42.46;96246.38;10278474;28;1888;-72
2022/08/08 11:08:18;;;;;;;;;;;;;;;23.96;41.99;96233.41;10292621;28;1905;-72
2022/08/08 11:13:18;;;;;;;;;;;;;;;23.97;42.13;96250.88;10271679;28;1835;-71
2022/08/08 11:18:19;;;;;;;;;;;;;;;24.00;42.29;96244.22;10266687;28;1947;-72
2022/08/08 11:23:19;;;;;;;;;;;;;;;23.99;42.23;96251.38;10269481;28;1837;-73
2022/08/08 11:28:24;;;;;;;;;;;;;;;24.01;42.23;96240.47;10266205;28;1877;-71
2022/08/08 11:33:24;;;;;;;;;;;;;;;24.04;42.23;96235.47;10270477;28;1798;-72
2022/08/08 11:38:25;;;;;;;;;;;;;;;24.06;42.38;96235.97;10254536;28;1996;-73
2022/08/08 11:43:25;;;;;;;;;;;;;;;24.06;41.97;96230.66;10272043;28;1882;-72
2022/08/08 11:48:25;;;;;;;;;;;;;;;24.06;42.19;96233.31;10275292;28;1945;-73
2022/08/08 11:53:26;;;;;;;;;;;;;;;24.09;41.91;96242.56;10285342;28;1894;-72
2022/08/08 11:58:32;;;;;;;;;;;;;;;24.07;41.72;96229.56;10269087;28;1979;-72
2022/08/08 12:03:33;;;;;;;;;;;;;;;24.07;41.68;96223.53;10269529;28;1917;-72
2022/08/08 12:08:34;;;;;;;;;;;;;;;24.07;41.43;96224.28;10276193;28;1898;-72
2022/08/08 12:13:34;;;;;;;;;;;;;;;24.08;41.65;96215.28;10290055;28;1886;-72
2022/08/08 12:18:45;;;;;;;;;;;;;;;24.10;41.58;96207.84;10272071;28;1918;-72
2022/08/08 12:23:45;;;;;;;;;;;;;;;24.10;41.14;96213.13;10268453;28;2014;-71
2022/08/08 12:28:52;;;;;;;;;;;;;;;24.10;41.15;96207.84;10271452;28;1938;-72
2022/08/08 12:33:54;;;;;;;;;;;;;;;24.11;41.53;96208.63;10271584;28;1830;-72
2022/08/08 12:38:54;;;;;;;;;;;;;;;24.13;41.30;96212.53;10267607;28;1966;-72
2022/08/08 12:44:03;;;;;;;;;;;;;;;24.15;41.27;96207.75;10274594;28;1861;-72
2022/08/08 12:49:04;;;;;;;;;;;;;;;24.16;41.03;96200.59;10282644;28;1832;-72
2022/08/08 12:54:08;;;;;;;;;;;;;;;24.16;41.12;96201.41;10269937;28;1806;-73
2022/08/08 12:59:15;;;;;;;;;;;;;;;24.16;41.02;96206.69;10269191;28;1902;-74
2022/08/08 13:04:20;;;;;;;;;;;;;;;24.17;41.03;96208.25;10260225;28;1883;-73
2022/08/08 13:09:30;;;;;;;;;;;;;;;24.20;41.21;96207.69;10272798;28;2135;-72
2022/08/08 13:14:34;;;;;;;;;;;;;;;24.21;41.20;96211.91;10268473;28;2199;-73
2022/08/08 13:19:35;;;;;;;;;;;;;;;24.23;41.11;96193.09;10268174;28;1985;-71
2022/08/08 13:24:35;;;;;;;;;;;;;;;24.23;41.00;96187.81;10256110;28;1861;-73
2022/08/08 13:29:38;;;;;;;;;;;;;;;24.22;40.77;96179.06;10282976;28;1827;-72
2022/08/08 13:34:39;;;;;;;;;;;;;;;24.24;40.63;96184.06;10275148;28;2423;-73
2022/08/08 13:39:39;;;;;;;;;;;;;;;24.23;40.84;96177.22;10275690;28;2303;-71
2022/08/08 13:44:40;;;;;;;;;;;;;;;24.23;41.18;96172.69;10284237;28;1853;-72
2022/08/08 13:49:42;;;;;;;;;;;;;;;24.24;41.00;96168.97;10273035;28;1871;-73
2022/08/08 13:54:43;;;;;;;;;;;;;;;24.27;41.03;96169.47;10274983;28;1822;-72
2022/08/08 13:59:46;;;;;;;;;;;;;;;24.29;40.97;96173.41;10278888;28;1907;-73
2022/08/08 14:04:57;;;;;;;;;;;;;;;24.31;41.16;96165.16;10281218;28;1830;-73
2022/08/08 14:10:05;;;;;;;;;;;;;;;24.34;41.03;96164.59;10277746;28;1835;-72
2022/08/08 14:15:07;;;;;;;;;;;;;;;24.32;40.95;96177.34;10290295;28;1810;-70
2022/08/08 14:20:08;;;;;;;;;;;;;;;24.33;40.79;96170.97;10270141;28;1902;-73
2022/08/08 14:25:08;;;;;;;;;;;;;;;24.33;41.09;96169.13;10279220;28;1873;-73
2022/08/08 14:30:10;;;;;;;;;;;;;;;24.33;40.42;96176.25;10279449;28;1824;-73
2022/08/08 14:35:11;;;;;;;;;;;;;;;24.32;40.35;96169.41;10282503;28;1977;-74
2022/08/08 14:40:18;;;;;;;;;;;;;;;24.32;40.42;96172.81;10275012;28;1978;-73
2022/08/08 14:45:19;;;;;;;;;;;;;;;24.30;40.01;96168.91;10275735;28;2157;-73
2022/08/08 14:50:25;;;;;;;;;;;;;;;24.27;40.27;96172.13;10289409;28;1878;-73
2022/08/08 14:55:26;;;;;;;;;;;;;;;24.30;40.09;96174.22;10275264;28;2125;-73
2022/08/08 15:00:27;;;;;;;;;;;;;;;24.30;40.35;96171.56;10283732;28;1899;-73
2022/08/08 15:05:29;;;;;;;;;;;;;;;24.34;40.41;96167.25;10282981;28;1854;-73
2022/08/08 15:10:30;;;;;;;;;;;;;;;24.35;40.38;96177.56;10279614;28;1857;-74
2022/08/08 15:15:31;;;;;;;;;;;;;;;24.36;40.27;96175.72;10276256;28;2154;-73
2022/08/08 15:20:32;;;;;;;;;;;;;;;24.36;40.30;96173.81;10277286;28;2175;-73
2022/08/08 15:25:32;;;;;;;;;;;;;;;24.37;40.24;96169.31;10280085;28;2241;-73
2022/08/08 15:30:32;;;;;;;;;;;;;;;24.34;40.64;96172.56;10272720;28;1818;-73
2022/08/08 15:35:35;;;;;;;;;;;;;;;24.35;40.16;96182.06;10270740;28;1877;-74
2022/08/08 15:40:36;;;;;;;;;;;;;;;24.31;40.05;96181.84;10278708;28;1918;-74
2022/08/08 15:45:36;;;;;;;;;;;;;;;24.33;39.98;96184.22;10269793;28;1872;-73
2022/08/08 15:55:56;;;;;;;;;;;;;;;24.33;39.91;96174.41;10269683;28;1809;-73
2022/08/08 16:00:56;;;;;;;;;;;;;;;24.33;39.83;96174.41;10268407;28;1985;-74
2022/08/08 16:05:56;;;;;;;;;;;;;;;24.30;39.84;96171.56;10262445;28;1834;-73
2022/08/08 16:10:57;;;;;;;;;;;;;;;24.29;39.45;96169.97;10267205;28;1826;-73
2022/08/08 16:15:58;;;;;;;;;;;;;;;24.28;39.47;96171.06;10262801;28;1905;-73
2022/08/08 16:20:59;;;;;;;;;;;;;;;24.28;39.66;96169.16;10283157;28;1968;-72
2022/08/08 16:25:59;;;;;;;;;;;;;;;24.32;39.79;96178.13;10282258;28;1833;-72
2022/08/08 16:30:59;;;;;;;;;;;;;;;24.33;40.08;96173.63;10261703;28;1908;-73
2022/08/08 16:36:00;;;;;;;;;;;;;;;24.35;39.57;96166.97;10273969;28;1841;-73
2022/08/08 16:41:00;;;;;;;;;;;;;;;24.34;39.83;96169.91;10273270;28;2036;-73
2022/08/08 16:46:00;;;;;;;;;;;;;;;24.33;39.50;96179.72;10273862;28;1805;-73
2022/08/08 16:51:01;;;;;;;;;;;;;;;24.29;39.16;96175.25;10269703;28;1786;-73
2022/08/08 16:56:02;;;;;;;;;;;;;;;24.31;39.29;96176.56;10265289;28;1743;-74
2022/08/08 17:01:03;;;;;;;;;;;;;;;24.32;39.46;96177.34;10271912;28;1989;-73
2022/08/08 17:06:03;;;;;;;;;;;;;;;24.32;39.11;96175.47;10278380;28;1813;-73
2022/08/08 17:11:04;;;;;;;;;;;;;;;24.32;39.21;96182.66;10296844;28;1817;-72
2022/08/08 17:16:05;;;;;;;;;;;;;;;24.33;39.31;96189.50;10278524;28;2178;-72
2022/08/08 17:21:07;;;;;;;;;;;;;;;24.36;40.05;96196.91;10281473;28;1975;-70
2022/08/08 17:26:08;;;;;;;;;;;;;;;24.39;40.28;96198.97;10283606;28;1836;-72
2022/08/08 17:31:09;;;;;;;;;;;;;;;24.40;40.00;96198.66;10277786;28;1851;-72
2022/08/08 17:36:09;;;;;;;;;;;;;;;24.41;39.92;96202.13;10277493;28;1881;-72
2022/08/08 17:41:10;;;;;;;;;;;;;;;24.42;40.41;96201.81;10278035;28;1910;-72
2022/08/08 17:46:31;;;;;;;;;;;;;;;24.43;40.26;96207.91;10282581;28;1857;-69
2022/08/08 17:51:31;;;;;;;;;;;;;;;24.45;40.49;96208.41;10270462;28;2340;-70
2022/08/08 17:56:32;;;;;;;;;;;;;;;24.44;40.66;96217.47;10273391;28;1890;-71
2022/08/08 18:01:52;;;;;;;;;;;;;;;24.42;40.33;96219.59;10276463;28;1910;-71
2022/08/08 18:06:52;;;;;;;;;;;;;;;24.41;40.44;96228.59;10282356;28;1893;-72
2022/08/08 18:11:54;;;;;;;;;;;;;;;24.38;40.29;96224.66;10263108;28;2289;-71
2022/08/08 18:16:54;;;;;;;;;;;;;;;24.38;40.25;96231.84;10269880;28;2014;-71
2022/08/08 18:21:55;;;;;;;;;;;;;;;24.38;40.35;96234.50;10270727;28;1790;-70
2022/08/08 18:26:56;;;;;;;;;;;;;;;24.33;40.14;96234.56;10263709;28;1891;-71
2022/08/08 18:31:59;;;;;;;;;;;;;;;24.32;40.22;96236.41;10265727;28;1817;-72
2022/08/08 18:37:01;;;;;;;;;;;;;;;24.32;40.03;96235.63;10286443;28;2890;-70
2022/08/08 18:42:02;;;;;;;;;;;;;;;24.27;39.45;96246.28;10269567;28;1937;-70
2022/08/08 18:47:02;;;;;;;;;;;;;;;24.25;39.73;96244.69;10268187;28;1903;-69
2022/08/08 18:52:03;;;;;;;;;;;;;;;24.26;39.66;96256.09;10264885;28;1993;-69
2022/08/08 18:57:07;;;;;;;;;;;;;;;24.28;39.95;96261.13;10268736;28;1906;-70
2022/08/08 19:02:10;;;;;;;;;;;;;;;24.34;40.26;96266.06;10270733;28;1931;-69
2022/08/08 19:07:10;;;;;;;;;;;;;;;24.38;40.97;96266.28;10265162;28;2097;-70
2022/08/08 19:12:11;;;;;;;;;;;;;;;24.41;41.10;96263.84;10267240;28;1885;-70
2022/08/08 19:17:11;;;;;;;;;;;;;;;24.38;46.04;96272.38;10285456;28;2131;-72
2022/08/08 19:22:12;;;;;;;;;;;;;;;24.33;47.39;96283.03;10266145;28;1904;-72
2022/08/08 19:27:12;;;;;;;;;;;;;;;24.30;48.00;96291.53;10263506;28;1877;-72
2022/08/08 19:32:13;;;;;;;;;;;;;;;24.21;48.34;96288.72;10266045;28;2017;-73
2022/08/08 19:37:13;;;;;;;;;;;;;;;24.15;49.08;96289.88;10270524;28;1910;-73
2022/08/08 19:42:14;;;;;;;;;;;;;;;24.09;48.56;96290.22;10276926;28;1778;-73
2022/08/08 19:47:15;;;;;;;;;;;;;;;24.04;49.31;96293.72;10290400;28;1920;-72
2022/08/08 19:52:15;;;;;;;;;;;;;;;23.95;48.82;96295.38;10290685;28;1890;-72
2022/08/08 19:57:16;;;;;;;;;;;;;;;23.87;48.73;96295.19;10273868;28;1887;-72
2022/08/08 20:02:17;;;;;;;;;;;;;;;23.80;48.82;96292.09;10272750;28;1845;-73
2022/08/08 20:07:17;;;;;;;;;;;;;;;23.76;48.78;96297.16;10267785;28;2000;-73
2022/08/08 20:12:18;;;;;;;;;;;;;;;23.67;47.76;96293.56;10272403;28;1868;-73
2022/08/08 20:17:18;;;;;;;;;;;;;;;23.62;47.55;96296.25;10273340;28;1914;-70
2022/08/08 20:22:19;;;;;;;;;;;;;;;23.61;47.95;96299.19;10270666;28;1814;-71
2022/08/08 20:27:20;;;;;;;;;;;;;;;23.58;48.40;96297.88;10265517;28;1951;-71
2022/08/08 20:32:25;;;;;;;;;;;;;;;23.60;48.63;96308.16;10268718;28;1779;-70
2022/08/08 20:37:26;;;;;;;;;;;;;;;23.61;49.13;96293.88;10266320;28;2021;-69
2022/08/08 20:42:26;;;;;;;;;;;;;;;23.61;49.66;96299.97;10261343;28;1787;-69
2022/08/08 20:47:27;;;;;;;;;;;;;;;23.62;49.49;96301.53;10259733;28;1913;-69
2022/08/08 20:52:28;;;;;;;;;;;;;;;23.62;49.91;96293.59;10285029;28;1786;-69
2022/08/08 20:57:28;;;;;;;;;;;;;;;23.65;49.85;96295.69;10266790;28;1969;-69
2022/08/08 21:02:28;;;;;;;;;;;;;;;23.63;50.06;96299.69;10268701;28;1810;-68
2022/08/08 21:07:29;;;;;;;;;;;;;;;23.63;50.48;96297.84;10268384;28;1968;-69
2022/08/08 21:12:29;;;;;;;;;;;;;;;23.64;50.25;96303.94;10271676;28;1796;-69
2022/08/08 21:17:30;;;;;;;;;;;;;;;23.64;50.57;96309.22;10267455;28;1906;-69
2022/08/08 21:22:30;;;;;;;;;;;;;;;23.61;50.51;96299.97;10265912;28;1902;-69
2022/08/08 21:27:31;;;;;;;;;;;;;;;23.60;50.20;96306.31;10262957;28;1807;-69
2022/08/08 21:32:31;;;;;;;;;;;;;;;23.62;50.96;96306.81;10266572;28;1794;-70
2022/08/08 21:37:33;;;;;;;;;;;;;;;23.63;50.91;96303.13;10268940;28;2821;-69
2022/08/08 21:42:33;;;;;;;;;;;;;;;23.62;50.98;96306.06;10262082;28;1743;-69
2022/08/08 21:47:37;;;;;;;;;;;;;;;23.63;50.85;96299.69;10262151;28;1913;-69
2022/08/08 21:52:38;;;;;;;;;;;;;;;23.62;50.67;96292.84;10269715;28;1897;-69
2022/08/08 21:57:38;;;;;;;;;;;;;;;23.62;50.71;96290.19;10272181;28;1969;-70
2022/08/08 22:02:39;;;;;;;;;;;;;;;23.61;50.69;96288.59;10271629;28;1922;-69
2022/08/08 22:07:42;;;;;;;;;;;;;;;23.60;50.78;96295.72;10267963;28;1922;-69
2022/08/08 22:12:43;;;;;;;;;;;;;;;23.59;50.95;96294.16;10268292;28;2012;-69
2022/08/08 22:17:43;;;;;;;;;;;;;;;23.57;50.74;96288.38;10269295;28;1918;-70
2022/08/08 22:22:44;;;;;;;;;;;;;;;23.57;50.75;96288.38;10275761;28;1829;-70
2022/08/08 22:27:44;;;;;;;;;;;;;;;23.56;50.54;96293.91;10277215;28;1886;-70
2022/08/08 22:32:44;;;;;;;;;;;;;;;23.54;50.70;96291.56;10270447;28;1814;-70
2022/08/08 22:37:46;;;;;;;;;;;;;;;23.54;50.54;96288.91;10272601;28;1910;-70
2022/08/08 22:42:46;;;;;;;;;;;;;;;23.53;50.55;96292.66;10273196;28;1825;-69
2022/08/08 22:47:46;;;;;;;;;;;;;;;23.53;50.67;96290.00;10276838;28;1927;-70
2022/08/08 22:52:47;;;;;;;;;;;;;;;23.54;50.49;96290.75;10264578;28;1852;-70
2022/08/08 22:57:48;;;;;;;;;;;;;;;23.49;50.01;96291.63;10274084;28;1911;-70
2022/08/08 23:02:48;;;;;;;;;;;;;;;23.47;49.76;96283.19;10290517;28;1778;-70
2022/08/08 23:07:48;;;;;;;;;;;;;;;23.47;50.09;96285.81;10273862;28;1806;-70
2022/08/08 23:12:49;;;;;;;;;;;;;;;23.47;49.60;96283.19;10271460;28;1894;-70
2022/08/08 23:17:49;;;;;;;;;;;;;;;23.46;49.69;96286.88;10271843;28;2217;-70
2022/08/08 23:22:49;;;;;;;;;;;;;;;23.44;49.38;96289.81;10279199;28;1840;-70
2022/08/08 23:27:51;;;;;;;;;;;;;;;23.43;48.90;96287.44;10270622;28;1954;-70
2022/08/08 23:32:51;;;;;;;;;;;;;;;23.40;48.81;96283.50;10264086;28;1853;-70
2022/08/08 23:37:52;;;;;;;;;;;;;;;23.36;48.95;96284.31;10275069;28;1950;-70
2022/08/08 23:42:52;;;;;;;;;;;;;;;23.37;48.87;96291.19;10271827;28;1869;-70
2022/08/08 23:47:53;;;;;;;;;;;;;;;23.36;49.02;96285.13;10271770;28;2319;-70
2022/08/08 23:52:54;;;;;;;;;;;;;;;23.32;48.85;96280.66;10272704;28;1882;-70
2022/08/08 23:57:54;;;;;;;;;;;;;;;23.28;48.52;96284.91;10270661;28;2726;-70
